createdAt,value
2018-01-14T00:00:31.880Z,0.00
2018-01-14T00:01:31.854Z,0.00
2018-01-14T00:02:31.822Z,0.00
2018-01-14T00:03:31.785Z,0.00
2018-01-14T00:04:31.746Z,0.00
2018-01-14T00:05:31.714Z,0.00
2018-01-14T00:06:31.689Z,0.00
2018-01-14T00:07:31.648Z,0.00
2018-01-14T00:08:31.615Z,0.00
2018-01-14T00:09:31.588Z,0.00
2018-01-14T00:10:31.552Z,0.00
2018-01-14T00:11:31.819Z,0.00
2018-01-14T00:12:31.484Z,0.00
2018-01-14T00:13:31.454Z,0.00
2018-01-14T00:14:31.425Z,0.00
2018-01-14T00:15:31.384Z,0.00
2018-01-14T00:16:31.351Z,0.00
2018-01-14T00:17:31.317Z,0.00
2018-01-14T00:18:31.285Z,0.00
2018-01-14T00:19:31.257Z,0.00
2018-01-14T00:20:31.222Z,0.00
2018-01-14T00:21:31.198Z,0.00
2018-01-14T00:22:31.149Z,0.00
2018-01-14T00:23:31.122Z,0.00
2018-01-14T00:24:31.085Z,0.00
2018-01-14T00:25:31.066Z,0.00
2018-01-14T00:26:31.018Z,0.00
2018-01-14T00:27:30.996Z,0.00
2018-01-14T00:28:30.951Z,0.00
2018-01-14T00:29:30.923Z,0.00
2018-01-14T00:30:30.894Z,0.00
2018-01-14T00:31:30.851Z,0.00
2018-01-14T00:32:30.826Z,0.00
2018-01-14T00:33:30.784Z,0.00
2018-01-14T00:34:30.755Z,0.00
2018-01-14T00:35:30.726Z,0.00
2018-01-14T00:36:30.842Z,0.00
2018-01-14T00:37:30.657Z,0.00
2018-01-14T00:38:30.621Z,0.00
2018-01-14T00:39:30.587Z,0.00
2018-01-14T00:40:30.554Z,0.00
2018-01-14T00:41:30.522Z,0.00
2018-01-14T00:42:30.486Z,0.00
2018-01-14T00:43:30.453Z,0.00
2018-01-14T00:44:30.422Z,0.00
2018-01-14T00:45:30.389Z,0.00
2018-01-14T00:46:30.358Z,0.00
2018-01-14T00:47:30.625Z,0.00
2018-01-14T00:48:30.299Z,0.00
2018-01-14T00:49:30.255Z,0.00
2018-01-14T00:50:30.220Z,0.00
2018-01-14T00:51:30.195Z,0.00
2018-01-14T00:52:30.162Z,0.00
2018-01-14T00:53:30.417Z,0.00
2018-01-14T00:54:30.092Z,0.00
2018-01-14T00:55:30.062Z,0.00
2018-01-14T00:56:30.020Z,0.00
2018-01-14T00:57:30.000Z,0.00
2018-01-14T00:58:29.961Z,0.00
2018-01-14T00:59:29.922Z,0.00
2018-01-14T01:00:29.886Z,0.00
2018-01-14T01:01:29.869Z,0.00
2018-01-14T01:02:29.836Z,0.00
2018-01-14T01:03:30.090Z,0.00
2018-01-14T01:04:29.756Z,0.00
2018-01-14T01:05:29.720Z,0.00
2018-01-14T01:06:29.697Z,0.00
2018-01-14T01:07:29.657Z,0.00
2018-01-14T01:08:29.620Z,0.00
2018-01-14T01:09:29.603Z,0.00
2018-01-14T01:10:29.566Z,0.00
2018-01-14T01:11:29.535Z,0.00
2018-01-14T01:12:29.500Z,0.00
2018-01-14T01:13:29.456Z,0.00
2018-01-14T01:14:29.422Z,0.00
2018-01-14T01:15:29.395Z,0.00
2018-01-14T01:16:29.362Z,0.00
2018-01-14T01:17:29.322Z,0.00
2018-01-14T01:18:29.290Z,0.00
2018-01-14T01:19:29.256Z,0.00
2018-01-14T01:20:29.234Z,0.00
2018-01-14T01:21:29.550Z,0.00
2018-01-14T01:22:29.158Z,0.00
2018-01-14T01:23:29.126Z,0.00
2018-01-14T01:24:29.095Z,0.00
2018-01-14T01:25:29.054Z,0.00
2018-01-14T01:26:29.026Z,0.00
2018-01-14T01:27:28.988Z,0.00
2018-01-14T01:28:28.958Z,0.00
2018-01-14T01:29:28.933Z,0.00
2018-01-14T01:30:28.907Z,0.00
2018-01-14T01:31:28.867Z,0.00
2018-01-14T01:32:28.829Z,0.00
2018-01-14T01:33:28.798Z,0.00
2018-01-14T01:34:28.760Z,0.00
2018-01-14T01:35:28.727Z,0.00
2018-01-14T01:36:28.692Z,0.00
2018-01-14T01:37:28.658Z,0.00
2018-01-14T01:38:28.630Z,0.00
2018-01-14T01:39:28.594Z,0.00
2018-01-14T01:40:28.567Z,0.00
2018-01-14T01:41:28.522Z,0.00
2018-01-14T01:42:28.498Z,0.00
2018-01-14T01:43:28.473Z,0.00
2018-01-14T01:44:28.437Z,0.00
2018-01-14T01:45:28.394Z,0.00
2018-01-14T01:46:28.356Z,0.00
2018-01-14T01:47:28.335Z,0.00
2018-01-14T01:48:28.293Z,0.00
2018-01-14T01:49:28.258Z,0.00
2018-01-14T01:50:28.229Z,0.00
2018-01-14T01:51:28.204Z,0.00
2018-01-14T01:52:28.156Z,0.00
2018-01-14T01:53:28.131Z,0.00
2018-01-14T01:54:28.100Z,0.00
2018-01-14T01:55:28.059Z,0.00
2018-01-14T01:56:28.026Z,0.00
2018-01-14T01:57:28.004Z,0.00
2018-01-14T01:58:27.970Z,0.00
2018-01-14T01:59:27.933Z,0.00
2018-01-14T02:00:27.892Z,0.00
2018-01-14T02:01:27.857Z,0.00
2018-01-14T02:02:27.827Z,0.00
2018-01-14T02:03:27.796Z,0.00
2018-01-14T02:04:27.770Z,0.00
2018-01-14T02:05:27.726Z,0.00
2018-01-14T02:06:27.693Z,0.00
2018-01-14T02:07:27.661Z,0.00
2018-01-14T02:08:27.630Z,0.00
2018-01-14T02:09:27.593Z,0.00
2018-01-14T02:10:27.559Z,0.00
2018-01-14T02:11:27.531Z,0.00
2018-01-14T02:12:27.494Z,0.00
2018-01-14T02:13:27.456Z,0.00
2018-01-14T02:14:27.424Z,0.00
2018-01-14T02:15:27.401Z,0.00
2018-01-14T02:16:27.366Z,0.00
2018-01-14T02:17:27.329Z,0.00
2018-01-14T02:18:27.308Z,0.00
2018-01-14T02:19:27.263Z,0.00
2018-01-14T02:20:27.232Z,0.00
2018-01-14T02:21:27.191Z,0.00
2018-01-14T02:22:27.159Z,0.00
2018-01-14T02:23:27.136Z,0.00
2018-01-14T02:24:27.097Z,0.00
2018-01-14T02:25:27.058Z,0.00
2018-01-14T02:26:27.025Z,0.00
2018-01-14T02:27:26.998Z,0.00
2018-01-14T02:28:26.961Z,0.00
2018-01-14T02:29:26.925Z,0.00
2018-01-14T02:30:26.898Z,0.00
2018-01-14T02:31:26.861Z,0.00
2018-01-14T02:32:27.175Z,0.00
2018-01-14T02:33:26.803Z,0.00
2018-01-14T02:34:26.818Z,0.00
2018-01-14T02:35:26.734Z,0.00
2018-01-14T02:36:26.707Z,0.00
2018-01-14T02:37:26.659Z,0.00
2018-01-14T02:38:26.632Z,0.00
2018-01-14T02:39:26.602Z,0.00
2018-01-14T02:40:26.558Z,0.00
2018-01-14T02:41:26.525Z,0.00
2018-01-14T02:42:26.499Z,0.00
2018-01-14T02:43:26.467Z,0.00
2018-01-14T02:44:26.425Z,0.00
2018-01-14T02:45:26.392Z,0.00
2018-01-14T02:46:26.364Z,0.00
2018-01-14T02:47:26.328Z,0.00
2018-01-14T02:48:26.294Z,0.00
2018-01-14T02:49:26.262Z,0.00
2018-01-14T02:50:26.226Z,0.00
2018-01-14T02:51:26.199Z,0.00
2018-01-14T02:52:26.166Z,0.00
2018-01-14T02:53:26.137Z,0.00
2018-01-14T02:54:26.099Z,0.00
2018-01-14T02:55:26.068Z,0.00
2018-01-14T02:56:26.032Z,0.00
2018-01-14T02:57:26.001Z,0.00
2018-01-14T02:58:25.961Z,0.00
2018-01-14T02:59:25.925Z,0.00
2018-01-14T03:00:25.891Z,0.00
2018-01-14T03:01:25.862Z,0.00
2018-01-14T03:02:25.829Z,0.00
2018-01-14T03:03:25.801Z,0.00
2018-01-14T03:04:25.761Z,0.00
2018-01-14T03:05:25.730Z,0.00
2018-01-14T03:06:25.696Z,0.00
2018-01-14T03:07:25.659Z,0.00
2018-01-14T03:08:25.631Z,0.00
2018-01-14T03:09:25.593Z,0.00
2018-01-14T03:10:25.566Z,0.00
2018-01-14T03:11:25.526Z,0.00
2018-01-14T03:12:25.499Z,0.00
2018-01-14T03:13:25.770Z,0.00
2018-01-14T03:14:25.425Z,0.00
2018-01-14T03:15:25.394Z,0.00
2018-01-14T03:16:25.359Z,0.00
2018-01-14T03:17:25.336Z,0.00
2018-01-14T03:18:25.307Z,0.00
2018-01-14T03:19:25.268Z,0.00
2018-01-14T03:20:25.231Z,0.00
2018-01-14T03:21:25.208Z,0.00
2018-01-14T03:22:25.160Z,0.00
2018-01-14T03:23:25.133Z,0.00
2018-01-14T03:24:25.099Z,0.00
2018-01-14T03:25:25.085Z,0.00
2018-01-14T03:26:25.041Z,0.00
2018-01-14T03:27:24.994Z,0.00
2018-01-14T03:28:24.966Z,0.00
2018-01-14T03:29:24.933Z,0.00
2018-01-14T03:30:24.893Z,0.00
2018-01-14T03:31:24.872Z,0.00
2018-01-14T03:32:24.836Z,0.00
2018-01-14T03:33:24.794Z,0.00
2018-01-14T03:34:24.769Z,0.00
2018-01-14T03:35:25.027Z,0.00
2018-01-14T03:36:24.691Z,0.00
2018-01-14T03:37:24.670Z,0.00
2018-01-14T03:38:24.632Z,0.00
2018-01-14T03:39:24.596Z,0.00
2018-01-14T03:40:24.561Z,0.00
2018-01-14T03:41:24.529Z,0.00
2018-01-14T03:42:24.492Z,0.00
2018-01-14T03:43:24.460Z,0.00
2018-01-14T03:44:24.427Z,0.00
2018-01-14T03:45:24.393Z,0.00
2018-01-14T03:46:24.365Z,0.00
2018-01-14T03:47:24.333Z,0.00
2018-01-14T03:48:24.301Z,0.00
2018-01-14T03:49:24.268Z,0.00
2018-01-14T03:50:24.226Z,0.00
2018-01-14T03:51:24.193Z,0.00
2018-01-14T03:52:24.168Z,0.00
2018-01-14T03:53:24.138Z,0.00
2018-01-14T03:54:24.105Z,0.00
2018-01-14T03:55:24.066Z,0.00
2018-01-14T03:56:24.035Z,0.00
2018-01-14T03:57:23.993Z,0.00
2018-01-14T03:58:23.960Z,0.00
2018-01-14T03:59:23.936Z,0.00
2018-01-14T04:00:23.899Z,0.00
2018-01-14T04:01:23.862Z,0.00
2018-01-14T04:02:23.828Z,0.00
2018-01-14T04:03:23.802Z,0.00
2018-01-14T04:04:23.767Z,0.00
2018-01-14T04:05:23.732Z,0.00
2018-01-14T04:06:23.695Z,0.00
2018-01-14T04:07:23.662Z,0.00
2018-01-14T04:08:23.630Z,0.00
2018-01-14T04:09:23.605Z,0.00
2018-01-14T04:10:23.569Z,0.00
2018-01-14T04:11:23.881Z,0.00
2018-01-14T04:12:23.491Z,0.00
2018-01-14T04:13:23.469Z,0.00
2018-01-14T04:14:23.432Z,0.00
2018-01-14T04:15:23.407Z,0.00
2018-01-14T04:16:23.361Z,0.00
2018-01-14T04:17:23.342Z,0.00
2018-01-14T04:18:23.299Z,0.00
2018-01-14T04:19:23.260Z,0.00
2018-01-14T04:20:23.238Z,0.00
2018-01-14T04:21:23.200Z,0.00
2018-01-14T04:22:23.158Z,0.00
2018-01-14T04:23:23.133Z,0.00
2018-01-14T04:24:23.100Z,0.00
2018-01-14T04:25:23.063Z,0.00
2018-01-14T04:26:23.031Z,0.00
2018-01-14T04:27:22.994Z,0.00
2018-01-14T04:28:22.963Z,0.00
2018-01-14T04:29:22.928Z,0.00
2018-01-14T04:30:22.911Z,0.00
2018-01-14T04:31:22.865Z,0.00
2018-01-14T04:32:22.826Z,0.00
2018-01-14T04:33:22.793Z,0.00
2018-01-14T04:34:22.768Z,0.00
2018-01-14T04:35:22.729Z,0.00
2018-01-14T04:36:22.699Z,0.00
2018-01-14T04:37:22.723Z,0.00
2018-01-14T04:38:22.636Z,0.00
2018-01-14T04:39:22.599Z,0.00
2018-01-14T04:40:22.567Z,0.00
2018-01-14T04:41:22.528Z,0.00
2018-01-14T04:42:22.498Z,0.00
2018-01-14T04:43:22.461Z,0.00
2018-01-14T04:44:22.427Z,0.00
2018-01-14T04:45:22.398Z,0.00
2018-01-14T04:46:22.658Z,0.00
2018-01-14T04:47:22.327Z,0.00
2018-01-14T04:48:22.295Z,0.00
2018-01-14T04:49:22.258Z,0.00
2018-01-14T04:50:22.227Z,0.00
2018-01-14T04:51:22.193Z,0.00
2018-01-14T04:52:22.160Z,0.00
2018-01-14T04:53:22.140Z,0.00
2018-01-14T04:54:22.100Z,0.00
2018-01-14T04:55:22.061Z,0.00
2018-01-14T04:56:22.024Z,0.00
2018-01-14T04:57:21.993Z,0.00
2018-01-14T04:58:21.966Z,0.00
2018-01-14T04:59:21.944Z,0.00
2018-01-14T05:00:21.897Z,0.00
2018-01-14T05:01:21.859Z,0.00
2018-01-14T05:02:21.834Z,0.00
2018-01-14T05:03:21.792Z,0.00
2018-01-14T05:04:21.768Z,0.00
2018-01-14T05:05:21.734Z,0.00
2018-01-14T05:06:21.694Z,0.00
2018-01-14T05:07:21.658Z,0.00
2018-01-14T05:08:21.627Z,0.00
2018-01-14T05:09:21.593Z,0.00
2018-01-14T05:10:21.559Z,0.00
2018-01-14T05:11:21.534Z,0.00
2018-01-14T05:12:21.494Z,0.00
2018-01-14T05:13:21.466Z,0.00
2018-01-14T05:14:21.424Z,0.00
2018-01-14T05:15:21.399Z,0.00
2018-01-14T05:16:21.359Z,0.00
2018-01-14T05:17:21.326Z,0.00
2018-01-14T05:18:21.303Z,0.00
2018-01-14T05:19:21.267Z,0.00
2018-01-14T05:20:21.236Z,0.00
2018-01-14T05:21:21.197Z,0.00
2018-01-14T05:22:21.158Z,0.00
2018-01-14T05:23:21.130Z,0.00
2018-01-14T05:24:21.107Z,0.00
2018-01-14T05:25:21.065Z,0.00
2018-01-14T05:26:21.030Z,0.00
2018-01-14T05:27:21.292Z,0.00
2018-01-14T05:28:20.965Z,0.00
2018-01-14T05:29:20.925Z,0.00
2018-01-14T05:30:20.891Z,0.00
2018-01-14T05:31:20.858Z,0.00
2018-01-14T05:32:20.826Z,0.00
2018-01-14T05:33:20.807Z,0.00
2018-01-14T05:34:20.761Z,0.00
2018-01-14T05:35:20.736Z,0.00
2018-01-14T05:36:20.700Z,0.00
2018-01-14T05:37:20.657Z,0.00
2018-01-14T05:38:20.624Z,0.00
2018-01-14T05:39:20.596Z,0.00
2018-01-14T05:40:20.561Z,0.00
2018-01-14T05:41:20.532Z,0.00
2018-01-14T05:42:20.492Z,0.00
2018-01-14T05:43:20.472Z,0.00
2018-01-14T05:44:20.425Z,0.00
2018-01-14T05:45:20.406Z,0.00
2018-01-14T05:46:20.360Z,0.00
2018-01-14T05:47:20.337Z,0.00
2018-01-14T05:48:20.295Z,0.00
2018-01-14T05:49:20.266Z,0.00
2018-01-14T05:50:20.231Z,0.00
2018-01-14T05:51:20.191Z,0.00
2018-01-14T05:52:20.165Z,0.00
2018-01-14T05:53:20.129Z,0.00
2018-01-14T05:54:20.094Z,0.00
2018-01-14T05:55:20.066Z,0.00
2018-01-14T05:56:20.027Z,0.00
2018-01-14T05:57:20.003Z,0.00
2018-01-14T05:58:19.969Z,0.00
2018-01-14T05:59:19.931Z,0.00
2018-01-14T06:00:19.892Z,0.00
2018-01-14T06:01:19.865Z,0.00
2018-01-14T06:02:20.133Z,0.00
2018-01-14T06:03:19.795Z,0.00
2018-01-14T06:04:19.763Z,0.00
2018-01-14T06:05:19.731Z,0.00
2018-01-14T06:06:19.693Z,0.00
2018-01-14T06:07:19.669Z,0.00
2018-01-14T06:08:19.647Z,0.00
2018-01-14T06:09:19.601Z,0.00
2018-01-14T06:10:19.561Z,0.00
2018-01-14T06:11:19.538Z,0.00
2018-01-14T06:12:19.500Z,0.00
2018-01-14T06:13:19.470Z,0.00
2018-01-14T06:14:19.436Z,0.00
2018-01-14T06:15:19.400Z,0.00
2018-01-14T06:16:19.361Z,0.00
2018-01-14T06:17:19.335Z,0.00
2018-01-14T06:18:19.294Z,0.00
2018-01-14T06:19:19.302Z,0.00
2018-01-14T06:20:19.231Z,0.00
2018-01-14T06:21:19.205Z,0.00
2018-01-14T06:22:19.166Z,0.00
2018-01-14T06:23:19.134Z,0.00
2018-01-14T06:24:19.098Z,0.00
2018-01-14T06:25:19.069Z,0.00
2018-01-14T06:26:19.040Z,0.00
2018-01-14T06:27:19.011Z,0.00
2018-01-14T06:28:19.027Z,0.00
2018-01-14T06:29:18.942Z,0.00
2018-01-14T06:30:18.909Z,0.00
2018-01-14T06:31:18.863Z,0.00
2018-01-14T06:32:18.836Z,0.00
2018-01-14T06:33:18.799Z,0.00
2018-01-14T06:34:18.771Z,0.00
2018-01-14T06:35:18.731Z,0.00
2018-01-14T06:36:18.695Z,0.00
2018-01-14T06:37:18.670Z,0.00
2018-01-14T06:38:18.637Z,0.00
2018-01-14T06:39:18.609Z,0.00
2018-01-14T06:40:18.565Z,0.00
2018-01-14T06:41:18.541Z,0.00
2018-01-14T06:42:18.498Z,0.00
2018-01-14T06:43:18.467Z,0.00
2018-01-14T06:44:18.434Z,0.00
2018-01-14T06:45:18.402Z,0.00
2018-01-14T06:46:18.363Z,4.00
2018-01-14T06:47:18.344Z,4.00
2018-01-14T06:48:18.304Z,0.00
2018-01-14T06:49:18.272Z,0.00
2018-01-14T06:50:18.233Z,4.00
2018-01-14T06:51:18.204Z,4.00
2018-01-14T06:52:18.167Z,4.00
2018-01-14T06:53:18.137Z,8.00
2018-01-14T06:54:18.103Z,4.00
2018-01-14T06:55:18.065Z,4.00
2018-01-14T06:56:18.048Z,4.00
2018-01-14T06:57:18.004Z,8.00
2018-01-14T06:58:17.967Z,8.00
2018-01-14T06:59:17.929Z,12.00
2018-01-14T07:00:17.908Z,12.00
2018-01-14T07:01:17.865Z,16.00
2018-01-14T07:02:17.840Z,20.00
2018-01-14T07:03:17.805Z,24.00
2018-01-14T07:04:17.762Z,28.00
2018-01-14T07:05:17.736Z,28.00
2018-01-14T07:06:17.698Z,32.00
2018-01-14T07:07:17.666Z,44.00
2018-01-14T07:08:17.626Z,52.00
2018-01-14T07:09:17.613Z,60.00
2018-01-14T07:10:17.560Z,68.00
2018-01-14T07:11:17.526Z,76.00
2018-01-14T07:12:17.497Z,88.00
2018-01-14T07:13:17.460Z,100.00
2018-01-14T07:14:17.425Z,112.00
2018-01-14T07:15:17.404Z,128.00
2018-01-14T07:16:17.365Z,140.00
2018-01-14T07:17:17.332Z,156.00
2018-01-14T07:18:17.296Z,176.00
2018-01-14T07:19:17.271Z,196.00
2018-01-14T07:20:17.225Z,220.00
2018-01-14T07:21:17.189Z,240.00
2018-01-14T07:22:17.154Z,268.00
2018-01-14T07:23:17.121Z,292.00
2018-01-14T07:24:17.088Z,320.00
2018-01-14T07:25:17.053Z,352.00
2018-01-14T07:26:17.026Z,380.00
2018-01-14T07:27:16.987Z,412.00
2018-01-14T07:28:16.960Z,444.00
2018-01-14T07:29:16.923Z,484.00
2018-01-14T07:30:16.900Z,520.00
2018-01-14T07:31:16.856Z,564.00
2018-01-14T07:32:16.818Z,604.00
2018-01-14T07:33:16.793Z,648.00
2018-01-14T07:34:16.748Z,696.00
2018-01-14T07:35:16.717Z,744.00
2018-01-14T07:36:16.676Z,796.00
2018-01-14T07:37:16.994Z,848.00
2018-01-14T07:38:16.609Z,900.00
2018-01-14T07:39:16.584Z,956.00
2018-01-14T07:40:16.547Z,1016.00
2018-01-14T07:41:16.509Z,1072.00
2018-01-14T07:42:16.479Z,1136.00
2018-01-14T07:43:16.446Z,1196.00
2018-01-14T07:44:16.402Z,1260.00
2018-01-14T07:45:16.374Z,1328.00
2018-01-14T07:46:16.333Z,1400.00
2018-01-14T07:47:16.316Z,1464.00
2018-01-14T07:48:16.265Z,1536.00
2018-01-14T07:49:16.241Z,1604.00
2018-01-14T07:50:16.210Z,1684.00
2018-01-14T07:51:16.176Z,1764.00
2018-01-14T07:52:16.137Z,1836.00
2018-01-14T07:53:16.096Z,1916.00
2018-01-14T07:54:16.070Z,1992.00
2018-01-14T07:55:16.027Z,2064.00
2018-01-14T07:56:16.000Z,2136.00
2018-01-14T07:57:15.961Z,2224.00
2018-01-14T07:58:15.933Z,2312.00
2018-01-14T07:59:15.897Z,2396.00
2018-01-14T08:00:15.857Z,2484.00
2018-01-14T08:01:15.835Z,2560.00
2018-01-14T08:02:15.803Z,2648.00
2018-01-14T08:03:15.756Z,2752.00
2018-01-14T08:04:15.721Z,2848.00
2018-01-14T08:05:15.692Z,2956.00
2018-01-14T08:06:15.651Z,3052.00
2018-01-14T08:07:15.620Z,3136.00
2018-01-14T08:08:15.590Z,3236.00
2018-01-14T08:09:15.549Z,3348.00
2018-01-14T08:10:15.515Z,3468.00
2018-01-14T08:11:15.483Z,3576.00
2018-01-14T08:12:15.459Z,3680.00
2018-01-14T08:13:15.667Z,3792.00
2018-01-14T08:14:15.389Z,3892.00
2018-01-14T08:15:15.352Z,4008.00
2018-01-14T08:16:15.310Z,4128.00
2018-01-14T08:17:15.277Z,4248.00
2018-01-14T08:18:15.253Z,4364.00
2018-01-14T08:19:15.512Z,4548.00
2018-01-14T08:20:15.199Z,4708.00
2018-01-14T08:21:15.142Z,4792.00
2018-01-14T08:22:15.107Z,4900.00
2018-01-14T08:23:15.087Z,5028.00
2018-01-14T08:24:15.049Z,5160.00
2018-01-14T08:25:15.010Z,5244.00
2018-01-14T08:26:14.975Z,5384.00
2018-01-14T08:27:14.941Z,5528.00
2018-01-14T08:28:14.907Z,5632.00
2018-01-14T08:29:14.873Z,5732.00
2018-01-14T08:30:14.840Z,5820.00
2018-01-14T08:31:14.808Z,5952.00
2018-01-14T08:32:14.788Z,6076.00
2018-01-14T08:33:14.749Z,6212.00
2018-01-14T08:34:14.715Z,6380.00
2018-01-14T08:35:14.673Z,6552.00
2018-01-14T08:36:14.643Z,6700.00
2018-01-14T08:37:14.912Z,6844.00
2018-01-14T08:38:14.581Z,7004.00
2018-01-14T08:39:14.562Z,7124.00
2018-01-14T08:40:14.514Z,7360.00
2018-01-14T08:41:14.474Z,7652.00
2018-01-14T08:42:14.440Z,8172.00
2018-01-14T08:43:14.407Z,8216.00
2018-01-14T08:44:14.386Z,7896.00
2018-01-14T08:45:14.341Z,7964.00
2018-01-14T08:46:14.316Z,8124.00
2018-01-14T08:47:14.285Z,8356.00
2018-01-14T08:48:14.256Z,8252.00
2018-01-14T08:49:14.614Z,8096.00
2018-01-14T08:50:14.179Z,8116.00
2018-01-14T08:51:14.154Z,8132.00
2018-01-14T08:52:14.118Z,8104.00
2018-01-14T08:53:14.084Z,8040.00
2018-01-14T08:54:14.047Z,8120.00
2018-01-14T08:55:14.330Z,8264.00
2018-01-14T08:56:13.982Z,8344.00
2018-01-14T08:57:13.948Z,8440.00
2018-01-14T08:58:13.920Z,8492.00
2018-01-14T08:59:13.891Z,8596.00
2018-01-14T09:00:13.854Z,8660.00
2018-01-14T09:01:13.826Z,8724.00
2018-01-14T09:02:13.802Z,8788.00
2018-01-14T09:03:13.754Z,8880.00
2018-01-14T09:04:13.728Z,8964.00
2018-01-14T09:05:13.696Z,9064.00
2018-01-14T09:06:13.670Z,9228.00
2018-01-14T09:07:13.626Z,9344.00
2018-01-14T09:08:13.592Z,9472.00
2018-01-14T09:09:13.568Z,9548.00
2018-01-14T09:10:13.532Z,9592.00
2018-01-14T09:11:13.499Z,9720.00
2018-01-14T09:12:13.467Z,9832.00
2018-01-14T09:13:13.434Z,9908.00
2018-01-14T09:14:13.402Z,9948.00
2018-01-14T09:15:13.371Z,10004.00
2018-01-14T09:16:13.341Z,10128.00
2018-01-14T09:17:13.309Z,10384.00
2018-01-14T09:18:13.297Z,10804.00
2018-01-14T09:19:13.242Z,11244.00
2018-01-14T09:20:13.218Z,11576.00
2018-01-14T09:21:13.188Z,11984.00
2018-01-14T09:22:13.147Z,12264.00
2018-01-14T09:23:13.132Z,12628.00
2018-01-14T09:24:13.085Z,12952.00
2018-01-14T09:25:13.361Z,13284.00
2018-01-14T09:26:13.022Z,13600.00
2018-01-14T09:27:12.999Z,13728.00
2018-01-14T09:28:12.967Z,13888.00
2018-01-14T09:29:12.943Z,14080.00
2018-01-14T09:30:12.896Z,13888.00
2018-01-14T09:31:12.870Z,13488.00
2018-01-14T09:32:12.835Z,13344.00
2018-01-14T09:33:12.805Z,13152.00
2018-01-14T09:34:12.782Z,13044.00
2018-01-14T09:35:12.741Z,13152.00
2018-01-14T09:36:12.713Z,13328.00
2018-01-14T09:37:12.940Z,13356.00
2018-01-14T09:38:12.653Z,13388.00
2018-01-14T09:39:12.615Z,13416.00
2018-01-14T09:40:12.583Z,13704.00
2018-01-14T09:41:12.561Z,13856.00
2018-01-14T09:42:12.529Z,14056.00
2018-01-14T09:43:12.498Z,14272.00
2018-01-14T09:44:12.460Z,14368.00
2018-01-14T09:45:12.437Z,14496.00
2018-01-14T09:46:12.399Z,14464.00
2018-01-14T09:47:12.374Z,13944.00
2018-01-14T09:48:12.345Z,14656.00
2018-01-14T09:49:12.307Z,14496.00
2018-01-14T09:50:12.287Z,14784.00
2018-01-14T09:51:12.251Z,14752.00
2018-01-14T09:52:12.214Z,14720.00
2018-01-14T09:53:12.193Z,14912.00
2018-01-14T09:54:12.159Z,14848.00
2018-01-14T09:55:12.122Z,15040.00
2018-01-14T09:56:12.089Z,15072.00
2018-01-14T09:57:12.071Z,15200.00
2018-01-14T09:58:12.034Z,15200.00
2018-01-14T09:59:12.008Z,15168.00
2018-01-14T10:00:11.973Z,15232.00
2018-01-14T10:01:12.240Z,15360.00
2018-01-14T10:02:11.914Z,15744.00
2018-01-14T10:03:11.875Z,15968.00
2018-01-14T10:04:11.852Z,16032.00
2018-01-14T10:05:11.813Z,16032.00
2018-01-14T10:06:11.782Z,16448.00
2018-01-14T10:07:12.011Z,16352.00
2018-01-14T10:08:11.722Z,16320.00
2018-01-14T10:09:11.692Z,16352.00
2018-01-14T10:10:11.666Z,16288.00
2018-01-14T10:11:11.631Z,16416.00
2018-01-14T10:12:11.605Z,16736.00
2018-01-14T10:13:11.580Z,16736.00
2018-01-14T10:14:11.551Z,17312.00
2018-01-14T10:15:11.515Z,17536.00
2018-01-14T10:16:11.481Z,17248.00
2018-01-14T10:17:11.449Z,17376.00
2018-01-14T10:18:11.424Z,17856.00
2018-01-14T10:19:11.385Z,17696.00
2018-01-14T10:20:11.359Z,16928.00
2018-01-14T10:21:11.327Z,17760.00
2018-01-14T10:22:11.302Z,17984.00
2018-01-14T10:23:11.266Z,17952.00
2018-01-14T10:24:11.240Z,18496.00
2018-01-14T10:25:11.210Z,18656.00
2018-01-14T10:26:11.180Z,16736.00
2018-01-14T10:27:11.147Z,18048.00
2018-01-14T10:28:11.130Z,18272.00
2018-01-14T10:29:11.089Z,17920.00
2018-01-14T10:30:11.054Z,18272.00
2018-01-14T10:31:11.030Z,18560.00
2018-01-14T10:32:10.992Z,18080.00
2018-01-14T10:33:10.967Z,18624.00
2018-01-14T10:34:10.934Z,18240.00
2018-01-14T10:35:10.903Z,18720.00
2018-01-14T10:36:10.873Z,18912.00
2018-01-14T10:37:10.850Z,18688.00
2018-01-14T10:38:10.818Z,19584.00
2018-01-14T10:39:11.021Z,19168.00
2018-01-14T10:40:10.752Z,19744.00
2018-01-14T10:41:10.727Z,18400.00
2018-01-14T10:42:10.693Z,19200.00
2018-01-14T10:43:10.668Z,20512.00
2018-01-14T10:44:10.641Z,20480.00
2018-01-14T10:45:10.606Z,20128.00
2018-01-14T10:46:10.576Z,19936.00
2018-01-14T10:47:10.542Z,20928.00
2018-01-14T10:48:10.518Z,20992.00
2018-01-14T10:49:10.483Z,20768.00
2018-01-14T10:50:10.450Z,20480.00
2018-01-14T10:51:10.427Z,20512.00
2018-01-14T10:52:10.397Z,20800.00
2018-01-14T10:53:10.361Z,20448.00
2018-01-14T10:54:10.341Z,20416.00
2018-01-14T10:55:10.301Z,20608.00
2018-01-14T10:56:10.275Z,20928.00
2018-01-14T10:57:10.247Z,20736.00
2018-01-14T10:58:10.213Z,21056.00
2018-01-14T10:59:10.191Z,21664.00
2018-01-14T11:00:10.457Z,21280.00
2018-01-14T11:01:10.120Z,21632.00
2018-01-14T11:02:10.104Z,22016.00
2018-01-14T11:03:10.065Z,22240.00
2018-01-14T11:04:10.032Z,23136.00
2018-01-14T11:05:10.008Z,22848.00
2018-01-14T11:06:10.273Z,23296.00
2018-01-14T11:07:09.953Z,22464.00
2018-01-14T11:08:09.914Z,21856.00
2018-01-14T11:09:12.035Z,21632.00
2018-01-14T11:10:09.855Z,21792.00
2018-01-14T11:11:09.834Z,22176.00
2018-01-14T11:12:09.797Z,20608.00
2018-01-14T11:13:09.769Z,20992.00
2018-01-14T11:14:09.752Z,21120.00
2018-01-14T11:15:09.708Z,21856.00
2018-01-14T11:16:09.681Z,21184.00
2018-01-14T11:17:09.657Z,21760.00
2018-01-14T11:18:09.624Z,21952.00
2018-01-14T11:19:09.594Z,22016.00
2018-01-14T11:20:09.562Z,20992.00
2018-01-14T11:21:09.535Z,22976.00
2018-01-14T11:22:09.505Z,23008.00
2018-01-14T11:23:09.468Z,22880.00
2018-01-14T11:24:09.439Z,23040.00
2018-01-14T11:25:09.422Z,22944.00
2018-01-14T11:26:09.390Z,22816.00
2018-01-14T11:27:09.360Z,23040.00
2018-01-14T11:28:09.330Z,23296.00
2018-01-14T11:29:09.292Z,23904.00
2018-01-14T11:30:09.267Z,23424.00
2018-01-14T11:31:09.237Z,23776.00
2018-01-14T11:32:09.205Z,23680.00
2018-01-14T11:33:09.184Z,24256.00
2018-01-14T11:34:09.154Z,24160.00
2018-01-14T11:35:09.119Z,23904.00
2018-01-14T11:36:09.096Z,23072.00
2018-01-14T11:37:09.063Z,22592.00
2018-01-14T11:38:09.031Z,21280.00
2018-01-14T11:39:09.001Z,20160.00
2018-01-14T11:40:08.969Z,19424.00
2018-01-14T11:41:08.942Z,19520.00
2018-01-14T11:42:08.920Z,19008.00
2018-01-14T11:43:08.891Z,18624.00
2018-01-14T11:44:08.854Z,18880.00
2018-01-14T11:45:08.830Z,19040.00
2018-01-14T11:46:08.843Z,19392.00
2018-01-14T11:47:08.768Z,20320.00
2018-01-14T11:48:08.735Z,20544.00
2018-01-14T11:49:08.706Z,21120.00
2018-01-14T11:50:08.685Z,20608.00
2018-01-14T11:51:08.649Z,20928.00
2018-01-14T11:52:08.635Z,20928.00
2018-01-14T11:53:08.593Z,21664.00
2018-01-14T11:54:08.565Z,22112.00
2018-01-14T11:55:08.533Z,22240.00
2018-01-14T11:56:08.510Z,22080.00
2018-01-14T11:57:08.473Z,22496.00
2018-01-14T11:58:08.446Z,23072.00
2018-01-14T11:59:08.418Z,22592.00
2018-01-14T12:00:08.394Z,23488.00
2018-01-14T12:01:08.366Z,23104.00
2018-01-14T12:02:08.339Z,23104.00
2018-01-14T12:03:08.308Z,24896.00
2018-01-14T12:04:08.578Z,24736.00
2018-01-14T12:05:08.242Z,24768.00
2018-01-14T12:06:08.229Z,25088.00
2018-01-14T12:07:08.192Z,24576.00
2018-01-14T12:08:08.162Z,24256.00
2018-01-14T12:09:08.131Z,23616.00
2018-01-14T12:10:08.111Z,23680.00
2018-01-14T12:11:08.076Z,23648.00
2018-01-14T12:12:08.039Z,24288.00
2018-01-14T12:13:08.011Z,23712.00
2018-01-14T12:14:07.983Z,23840.00
2018-01-14T12:15:07.957Z,24480.00
2018-01-14T12:16:07.932Z,24704.00
2018-01-14T12:17:07.904Z,24800.00
2018-01-14T12:18:07.873Z,23744.00
2018-01-14T12:19:07.846Z,22976.00
2018-01-14T12:20:07.809Z,23104.00
2018-01-14T12:21:07.789Z,23520.00
2018-01-14T12:22:07.754Z,23360.00
2018-01-14T12:23:07.729Z,23136.00
2018-01-14T12:24:07.702Z,22944.00
2018-01-14T12:25:07.673Z,23008.00
2018-01-14T12:26:07.642Z,22592.00
2018-01-14T12:27:07.614Z,22944.00
2018-01-14T12:28:07.589Z,23456.00
2018-01-14T12:29:07.550Z,23136.00
2018-01-14T12:30:07.528Z,22912.00
2018-01-14T12:31:07.494Z,23136.00
2018-01-14T12:32:07.473Z,22208.00
2018-01-14T12:33:07.441Z,22112.00
2018-01-14T12:34:07.413Z,23040.00
2018-01-14T12:35:07.379Z,23360.00
2018-01-14T12:36:07.357Z,23872.00
2018-01-14T12:37:07.548Z,23328.00
2018-01-14T12:38:07.300Z,23072.00
2018-01-14T12:39:07.269Z,23104.00